CheckWX is a tool to help pilots better visualize weather data.  It is not intended as a substitute for an official pre-flight weather briefing.

05:18:12 UTC

ESMT METAR
Halmstad Airport
Halmstad, Sweden
Current

28 mins ago

ESMT 200450Z AUTO 30012KT 9999 OVC008/// 04/03 Q1009
Observed
Feb-20 @ 04:50 UTC
Wind
  • 300° at 12 KTS
Visibility
10,000+ meters
Flight Rules
IFR
Cloud Levels
  • Overcast at 800' AGL
Temperature
C / 39°F
Dewpoint
C / 37°F
Humidity
93%
Altimeter
29.79" Hg
Pressure
1008.92 hPa
Previous

58 mins ago

ESMT 200420Z AUTO 29011KT 260V320 9999 OVC010/// 04/02 Q1009
Observed
Feb-20 @ 04:20 UTC
Wind
  • 290° at 11 KTS
Visibility
10,000+ meters
Flight Rules
MVFR
Cloud Levels
  • Overcast at 1,000' AGL
Temperature
C / 39°F
Dewpoint
C / 36°F
Humidity
87%
Altimeter
29.79" Hg
Pressure
1008.92 hPa
Previous

1 hour ago

ESMT 200350Z AUTO 29013KT 9999 OVC010/// 04/02 Q1009
Observed
Feb-20 @ 03:50 UTC
Wind
  • 290° at 13 KTS
Visibility
10,000+ meters
Flight Rules
MVFR
Cloud Levels
  • Overcast at 1,000' AGL
Temperature
C / 39°F
Dewpoint
C / 36°F
Humidity
87%
Altimeter
29.79" Hg
Pressure
1008.92 hPa